sensor_id;sensor_type;location;lat;lon;timestamp;temperature;humidity
21770;DHT22;11046;49.558;8.674;2022-07-06T05:32:32;14.60;60.70
21770;DHT22;11046;49.558;8.674;2022-07-06T05:35:34;14.90;61.50
21770;DHT22;11046;49.558;8.674;2022-07-06T05:38:37;15.20;60.70
21770;DHT22;11046;49.558;8.674;2022-07-06T05:41:38;15.50;60.30
21770;DHT22;11046;49.558;8.674;2022-07-06T05:44:39;15.70;60.10
21770;DHT22;11046;49.558;8.674;2022-07-06T05:47:40;15.80;59.90
21770;DHT22;11046;49.558;8.674;2022-07-06T05:51:00;16.10;59.80
21770;DHT22;11046;49.558;8.674;2022-07-06T05:54:02;16.30;59.50
21770;DHT22;11046;49.558;8.674;2022-07-06T05:57:03;16.40;59.40
21770;DHT22;11046;49.558;8.674;2022-07-06T06:00:05;16.50;59.20
21770;DHT22;11046;49.558;8.674;2022-07-06T06:03:16;16.50;59.30
21770;DHT22;11046;49.558;8.674;2022-07-06T06:06:18;16.70;59.20
21770;DHT22;11046;49.558;8.674;2022-07-06T06:09:19;16.90;59.10
21770;DHT22;11046;49.558;8.674;2022-07-06T06:12:19;17.00;58.70
21770;DHT22;11046;49.558;8.674;2022-07-06T06:15:20;17.20;59.30
21770;DHT22;11046;49.558;8.674;2022-07-06T06:18:21;17.50;58.40
21770;DHT22;11046;49.558;8.674;2022-07-06T06:21:22;17.70;58.10
21770;DHT22;11046;49.558;8.674;2022-07-06T06:24:23;18.00;57.80
21770;DHT22;11046;49.558;8.674;2022-07-06T06:27:24;18.10;57.60
21770;DHT22;11046;49.558;8.674;2022-07-06T06:30:26;18.40;57.40
21770;DHT22;11046;49.558;8.674;2022-07-06T06:33:26;18.70;57.00
21770;DHT22;11046;49.558;8.674;2022-07-06T06:36:27;19.00;56.60
21770;DHT22;11046;49.558;8.674;2022-07-06T06:39:28;19.30;56.30
21770;DHT22;11046;49.558;8.674;2022-07-06T06:42:28;19.50;55.80
21770;DHT22;11046;49.558;8.674;2022-07-06T06:45:29;19.70;55.40
21770;DHT22;11046;49.558;8.674;2022-07-06T06:48:30;19.90;55.00
21770;DHT22;11046;49.558;8.674;2022-07-06T06:51:33;20.20;54.60
21770;DHT22;11046;49.558;8.674;2022-07-06T06:54:34;20.40;54.10
21770;DHT22;11046;49.558;8.674;2022-07-06T06:57:35;20.70;53.60
21770;DHT22;11046;49.558;8.674;2022-07-06T07:00:35;20.80;53.20
21770;DHT22;11046;49.558;8.674;2022-07-06T07:03:36;21.00;53.20
21770;DHT22;11046;49.558;8.674;2022-07-06T07:06:36;21.10;52.70
21770;DHT22;11046;49.558;8.674;2022-07-06T07:09:37;21.30;52.40
21770;DHT22;11046;49.558;8.674;2022-07-06T07:12:46;21.50;52.20
21770;DHT22;11046;49.558;8.674;2022-07-06T07:15:46;21.70;51.50
21770;DHT22;11046;49.558;8.674;2022-07-06T07:18:47;21.70;51.50
21770;DHT22;11046;49.558;8.674;2022-07-06T07:21:48;21.80;51.00
21770;DHT22;11046;49.558;8.674;2022-07-06T07:24:48;21.80;51.00
21770;DHT22;11046;49.558;8.674;2022-07-06T07:27:49;21.80;50.80
21770;DHT22;11046;49.558;8.674;2022-07-06T07:30:50;22.10;50.70
21770;DHT22;11046;49.558;8.674;2022-07-06T07:33:51;22.50;50.20
21770;DHT22;11046;49.558;8.674;2022-07-06T07:36:52;22.70;49.40
21770;DHT22;11046;49.558;8.674;2022-07-06T07:39:52;22.70;49.40
21770;DHT22;11046;49.558;8.674;2022-07-06T07:42:53;23.00;49.00
21770;DHT22;11046;49.558;8.674;2022-07-06T07:45:54;23.20;48.60
21770;DHT22;11046;49.558;8.674;2022-07-06T07:48:55;23.30;48.00
21770;DHT22;11046;49.558;8.674;2022-07-06T07:51:58;23.30;47.90
21770;DHT22;11046;49.558;8.674;2022-07-06T07:54:59;23.50;47.70
21770;DHT22;11046;49.558;8.674;2022-07-06T07:58:00;23.80;47.30
21770;DHT22;11046;49.558;8.674;2022-07-06T08:01:00;24.20;46.90
21770;DHT22;11046;49.558;8.674;2022-07-06T08:04:01;24.60;46.30
21770;DHT22;11046;49.558;8.674;2022-07-06T08:07:02;24.90;45.80
21770;DHT22;11046;49.558;8.674;2022-07-06T08:10:03;25.00;45.00
21770;DHT22;11046;49.558;8.674;2022-07-06T08:13:04;24.50;45.00
21770;DHT22;11046;49.558;8.674;2022-07-06T08:16:07;24.30;46.00
21770;DHT22;11046;49.558;8.674;2022-07-06T08:19:10;24.30;45.30
21770;DHT22;11046;49.558;8.674;2022-07-06T08:22:14;24.20;45.50
21770;DHT22;11046;49.558;8.674;2022-07-06T08:25:15;24.30;45.20
21770;DHT22;11046;49.558;8.674;2022-07-06T08:28:15;24.40;45.30
21770;DHT22;11046;49.558;8.674;2022-07-06T08:31:16;24.50;45.00
21770;DHT22;11046;49.558;8.674;2022-07-06T08:34:17;24.70;44.50
21770;DHT22;11046;49.558;8.674;2022-07-06T08:37:18;24.70;44.40
21770;DHT22;11046;49.558;8.674;2022-07-06T08:40:18;24.80;44.50
21770;DHT22;11046;49.558;8.674;2022-07-06T08:43:19;24.80;43.90
21770;DHT22;11046;49.558;8.674;2022-07-06T08:46:21;24.50;43.80
21770;DHT22;11046;49.558;8.674;2022-07-06T08:49:22;24.00;44.00
21770;DHT22;11046;49.558;8.674;2022-07-06T08:52:24;23.80;44.70
21770;DHT22;11046;49.558;8.674;2022-07-06T08:55:26;23.90;44.90
21770;DHT22;11046;49.558;8.674;2022-07-06T08:58:27;23.80;45.20
21770;DHT22;11046;49.558;8.674;2022-07-06T09:01:28;23.80;45.10
21770;DHT22;11046;49.558;8.674;2022-07-06T09:04:29;23.70;44.90
21770;DHT22;11046;49.558;8.674;2022-07-06T09:07:32;23.50;45.00
21770;DHT22;11046;49.558;8.674;2022-07-06T09:10:34;23.60;45.00
21770;DHT22;11046;49.558;8.674;2022-07-06T09:13:35;23.60;44.50
21770;DHT22;11046;49.558;8.674;2022-07-06T09:16:35;23.70;44.60
21770;DHT22;11046;49.558;8.674;2022-07-06T09:19:36;24.30;45.00
21770;DHT22;11046;49.558;8.674;2022-07-06T09:22:37;24.50;43.60
21770;DHT22;11046;49.558;8.674;2022-07-06T09:25:38;24.50;43.20
21770;DHT22;11046;49.558;8.674;2022-07-06T09:28:42;24.70;43.20
21770;DHT22;11046;49.558;8.674;2022-07-06T09:31:59;24.60;42.70
21770;DHT22;11046;49.558;8.674;2022-07-06T09:35:00;24.50;42.50
21770;DHT22;11046;49.558;8.674;2022-07-06T09:38:11;24.60;42.70
21770;DHT22;11046;49.558;8.674;2022-07-06T09:41:11;24.90;42.40
21770;DHT22;11046;49.558;8.674;2022-07-06T09:44:12;25.30;41.90
21770;DHT22;11046;49.558;8.674;2022-07-06T09:47:13;25.10;41.20
21770;DHT22;11046;49.558;8.674;2022-07-06T09:50:15;24.80;41.80
21770;DHT22;11046;49.558;8.674;2022-07-06T09:53:18;24.40;42.20
21770;DHT22;11046;49.558;8.674;2022-07-06T09:56:18;24.20;42.70
21770;DHT22;11046;49.558;8.674;2022-07-06T09:59:24;24.40;42.50
21770;DHT22;11046;49.558;8.674;2022-07-06T10:02:26;24.70;42.20
21770;DHT22;11046;49.558;8.674;2022-07-06T10:05:27;25.00;41.60
21770;DHT22;11046;49.558;8.674;2022-07-06T10:08:32;25.50;41.60
21770;DHT22;11046;49.558;8.674;2022-07-06T10:11:54;25.70;40.60
21770;DHT22;11046;49.558;8.674;2022-07-06T10:14:55;25.80;40.40
21770;DHT22;11046;49.558;8.674;2022-07-06T10:17:56;26.00;40.20
21770;DHT22;11046;49.558;8.674;2022-07-06T10:20:57;26.10;39.80
21770;DHT22;11046;49.558;8.674;2022-07-06T10:23:59;26.20;39.90
21770;DHT22;11046;49.558;8.674;2022-07-06T10:27:01;26.20;39.40
21770;DHT22;11046;49.558;8.674;2022-07-06T10:30:02;26.30;39.20
21770;DHT22;11046;49.558;8.674;2022-07-06T10:33:03;26.40;38.90
21770;DHT22;11046;49.558;8.674;2022-07-06T10:36:04;26.50;38.30
21770;DHT22;11046;49.558;8.674;2022-07-06T10:39:05;26.70;38.70
21770;DHT22;11046;49.558;8.674;2022-07-06T10:42:43;26.60;38.30
21770;DHT22;11046;49.558;8.674;2022-07-06T10:48:49;26.30;37.80
21770;DHT22;11046;49.558;8.674;2022-07-06T10:51:51;26.20;37.90
21770;DHT22;11046;49.558;8.674;2022-07-06T10:54:56;26.40;38.30
21770;DHT22;11046;49.558;8.674;2022-07-06T10:57:57;26.40;37.40
21770;DHT22;11046;49.558;8.674;2022-07-06T11:00:57;26.00;37.30
21770;DHT22;11046;49.558;8.674;2022-07-06T11:07:18;26.40;37.10
21770;DHT22;11046;49.558;8.674;2022-07-06T11:10:22;26.60;36.40
21770;DHT22;11046;49.558;8.674;2022-07-06T11:13:29;26.70;36.70
21770;DHT22;11046;49.558;8.674;2022-07-06T11:16:36;26.30;36.10
21770;DHT22;11046;49.558;8.674;2022-07-06T11:19:38;26.20;36.00
21770;DHT22;11046;49.558;8.674;2022-07-06T11:22:48;26.20;35.50
21770;DHT22;11046;49.558;8.674;2022-07-06T11:25:50;26.30;35.30
21770;DHT22;11046;49.558;8.674;2022-07-06T11:28:51;26.40;35.00
21770;DHT22;11046;49.558;8.674;2022-07-06T11:31:59;26.60;34.00
21770;DHT22;11046;49.558;8.674;2022-07-06T11:35:01;26.70;33.60
21770;DHT22;11046;49.558;8.674;2022-07-06T11:38:25;26.80;33.50
21770;DHT22;11046;49.558;8.674;2022-07-06T11:41:25;26.70;33.40
21770;DHT22;11046;49.558;8.674;2022-07-06T11:44:26;26.70;33.80
21770;DHT22;11046;49.558;8.674;2022-07-06T11:47:31;27.00;33.50
21770;DHT22;11046;49.558;8.674;2022-07-06T11:50:31;27.40;33.00
21770;DHT22;11046;49.558;8.674;2022-07-06T11:53:32;27.70;32.40
21770;DHT22;11046;49.558;8.674;2022-07-06T11:56:34;27.60;32.40
21770;DHT22;11046;49.558;8.674;2022-07-06T11:59:37;27.70;32.10
21770;DHT22;11046;49.558;8.674;2022-07-06T12:02:38;27.80;31.30
21770;DHT22;11046;49.558;8.674;2022-07-06T12:05:40;27.70;30.80
21770;DHT22;11046;49.558;8.674;2022-07-06T12:08:42;27.60;30.80
21770;DHT22;11046;49.558;8.674;2022-07-06T12:11:45;27.70;30.70
21770;DHT22;11046;49.558;8.674;2022-07-06T12:14:52;27.70;30.00
21770;DHT22;11046;49.558;8.674;2022-07-06T12:17:53;27.80;30.20
21770;DHT22;11046;49.558;8.674;2022-07-06T12:20:54;27.90;31.40
21770;DHT22;11046;49.558;8.674;2022-07-06T12:23:55;27.90;30.60
21770;DHT22;11046;49.558;8.674;2022-07-06T12:26:57;27.90;30.60
21770;DHT22;11046;49.558;8.674;2022-07-06T12:30:11;27.80;30.40
21770;DHT22;11046;49.558;8.674;2022-07-06T12:33:16;27.70;30.00
21770;DHT22;11046;49.558;8.674;2022-07-06T12:36:18;27.50;29.80
21770;DHT22;11046;49.558;8.674;2022-07-06T12:39:24;27.40;30.20
21770;DHT22;11046;49.558;8.674;2022-07-06T12:42:28;27.60;30.20
21770;DHT22;11046;49.558;8.674;2022-07-06T12:45:30;27.70;30.20
21770;DHT22;11046;49.558;8.674;2022-07-06T12:48:30;27.80;30.20
21770;DHT22;11046;49.558;8.674;2022-07-06T12:51:48;27.80;30.20
21770;DHT22;11046;49.558;8.674;2022-07-06T12:54:50;27.90;30.10
21770;DHT22;11046;49.558;8.674;2022-07-06T12:57:51;27.90;30.30
21770;DHT22;11046;49.558;8.674;2022-07-06T13:00:52;27.90;30.00
21770;DHT22;11046;49.558;8.674;2022-07-06T13:03:57;28.00;30.70
21770;DHT22;11046;49.558;8.674;2022-07-06T13:06:59;28.10;30.30
21770;DHT22;11046;49.558;8.674;2022-07-06T13:10:00;28.20;30.30
21770;DHT22;11046;49.558;8.674;2022-07-06T13:13:01;28.10;30.20
21770;DHT22;11046;49.558;8.674;2022-07-06T13:16:03;28.00;29.70
21770;DHT22;11046;49.558;8.674;2022-07-06T13:19:04;27.70;29.80
21770;DHT22;11046;49.558;8.674;2022-07-06T13:22:04;27.70;29.70
21770;DHT22;11046;49.558;8.674;2022-07-06T13:25:06;27.70;29.80
21770;DHT22;11046;49.558;8.674;2022-07-06T13:28:06;27.60;29.90
21770;DHT22;11046;49.558;8.674;2022-07-06T13:31:07;27.60;29.50
21770;DHT22;11046;49.558;8.674;2022-07-06T13:34:08;27.40;29.60
21770;DHT22;11046;49.558;8.674;2022-07-06T13:37:09;27.50;30.10
21770;DHT22;11046;49.558;8.674;2022-07-06T13:40:10;27.70;30.40
21770;DHT22;11046;49.558;8.674;2022-07-06T13:43:10;27.60;30.00
21770;DHT22;11046;49.558;8.674;2022-07-06T13:46:11;27.60;30.00
21770;DHT22;11046;49.558;8.674;2022-07-06T13:49:12;27.50;29.90
21770;DHT22;11046;49.558;8.674;2022-07-06T13:52:13;27.40;29.80
21770;DHT22;11046;49.558;8.674;2022-07-06T13:55:14;27.20;29.80
21770;DHT22;11046;49.558;8.674;2022-07-06T13:58:14;27.10;30.00
21770;DHT22;11046;49.558;8.674;2022-07-06T14:01:15;27.00;29.80
21770;DHT22;11046;49.558;8.674;2022-07-06T14:04:16;27.00;30.00
21770;DHT22;11046;49.558;8.674;2022-07-06T14:07:17;27.00;30.10
21770;DHT22;11046;49.558;8.674;2022-07-06T14:10:17;26.90;30.20
21770;DHT22;11046;49.558;8.674;2022-07-06T14:13:18;26.90;30.30
21770;DHT22;11046;49.558;8.674;2022-07-06T14:16:19;26.80;30.20
21770;DHT22;11046;49.558;8.674;2022-07-06T14:19:20;26.70;30.00
21770;DHT22;11046;49.558;8.674;2022-07-06T14:22:22;26.60;30.30
21770;DHT22;11046;49.558;8.674;2022-07-06T14:25:23;26.60;30.50
21770;DHT22;11046;49.558;8.674;2022-07-06T14:28:24;26.70;30.50
21770;DHT22;11046;49.558;8.674;2022-07-06T14:31:25;26.90;30.60
21770;DHT22;11046;49.558;8.674;2022-07-06T14:34:25;27.10;30.20
21770;DHT22;11046;49.558;8.674;2022-07-06T14:37:26;27.10;30.00
21770;DHT22;11046;49.558;8.674;2022-07-06T14:40:31;27.10;30.00
21770;DHT22;11046;49.558;8.674;2022-07-06T14:43:31;27.00;29.80
21770;DHT22;11046;49.558;8.674;2022-07-06T14:46:32;27.00;30.30
21770;DHT22;11046;49.558;8.674;2022-07-06T14:49:34;27.10;30.20
21770;DHT22;11046;49.558;8.674;2022-07-06T14:52:35;27.00;29.90
21770;DHT22;11046;49.558;8.674;2022-07-06T14:55:35;26.70;29.90
21770;DHT22;11046;49.558;8.674;2022-07-06T14:58:36;26.50;30.00
21770;DHT22;11046;49.558;8.674;2022-07-06T15:01:37;26.40;29.90
21770;DHT22;11046;49.558;8.674;2022-07-06T15:04:37;26.30;30.00
21770;DHT22;11046;49.558;8.674;2022-07-06T15:07:39;26.10;30.00
21770;DHT22;11046;49.558;8.674;2022-07-06T15:10:40;25.80;30.50
21770;DHT22;11046;49.558;8.674;2022-07-06T15:13:40;25.70;31.10
21770;DHT22;11046;49.558;8.674;2022-07-06T15:16:41;25.70;31.20
21770;DHT22;11046;49.558;8.674;2022-07-06T15:19:44;25.50;31.30
21770;DHT22;11046;49.558;8.674;2022-07-06T15:22:45;25.40;31.20
21770;DHT22;11046;49.558;8.674;2022-07-06T15:25:45;25.40;31.20
21770;DHT22;11046;49.558;8.674;2022-07-06T15:28:46;25.20;31.40
21770;DHT22;11046;49.558;8.674;2022-07-06T15:31:47;25.10;31.70
21770;DHT22;11046;49.558;8.674;2022-07-06T15:34:48;25.10;31.90
21770;DHT22;11046;49.558;8.674;2022-07-06T15:37:48;25.10;31.80
21770;DHT22;11046;49.558;8.674;2022-07-06T15:40:49;25.00;32.00
21770;DHT22;11046;49.558;8.674;2022-07-06T15:43:58;24.90;32.10
21770;DHT22;11046;49.558;8.674;2022-07-06T15:47:04;24.70;32.50
21770;DHT22;11046;49.558;8.674;2022-07-06T15:50:06;24.70;32.70
21770;DHT22;11046;49.558;8.674;2022-07-06T15:53:07;24.60;33.10
21770;DHT22;11046;49.558;8.674;2022-07-06T15:56:08;24.60;33.20
21770;DHT22;11046;49.558;8.674;2022-07-06T15:59:08;24.60;33.10
21770;DHT22;11046;49.558;8.674;2022-07-06T16:02:09;24.50;32.80
21770;DHT22;11046;49.558;8.674;2022-07-06T16:05:10;24.40;32.80
21770;DHT22;11046;49.558;8.674;2022-07-06T16:08:10;24.30;32.70
21770;DHT22;11046;49.558;8.674;2022-07-06T16:11:12;24.20;32.80
21770;DHT22;11046;49.558;8.674;2022-07-06T16:14:13;24.20;33.00
21770;DHT22;11046;49.558;8.674;2022-07-06T16:17:14;24.10;33.10
21770;DHT22;11046;49.558;8.674;2022-07-06T16:20:15;23.90;33.60
21770;DHT22;11046;49.558;8.674;2022-07-06T16:23:15;23.80;33.80
21770;DHT22;11046;49.558;8.674;2022-07-06T16:26:16;23.50;34.20
21770;DHT22;11046;49.558;8.674;2022-07-06T16:29:17;23.40;34.70
21770;DHT22;11046;49.558;8.674;2022-07-06T16:32:18;23.40;34.90
21770;DHT22;11046;49.558;8.674;2022-07-06T16:35:19;23.40;34.70
21770;DHT22;11046;49.558;8.674;2022-07-06T16:38:20;23.30;34.90
21770;DHT22;11046;49.558;8.674;2022-07-06T16:41:21;23.30;35.00
21770;DHT22;11046;49.558;8.674;2022-07-06T16:44:22;23.20;35.30
21770;DHT22;11046;49.558;8.674;2022-07-06T16:47:22;23.30;35.20
21770;DHT22;11046;49.558;8.674;2022-07-06T16:50:23;23.20;35.50
21770;DHT22;11046;49.558;8.674;2022-07-06T16:53:24;23.20;35.50
21770;DHT22;11046;49.558;8.674;2022-07-06T16:56:24;23.10;35.50
21770;DHT22;11046;49.558;8.674;2022-07-06T16:59:25;22.90;35.70
21770;DHT22;11046;49.558;8.674;2022-07-06T17:02:26;22.90;36.10
21770;DHT22;11046;49.558;8.674;2022-07-06T17:05:26;23.00;36.10
21770;DHT22;11046;49.558;8.674;2022-07-06T17:08:27;23.00;36.00
21770;DHT22;11046;49.558;8.674;2022-07-06T17:11:28;23.00;36.00
21770;DHT22;11046;49.558;8.674;2022-07-06T17:14:28;23.00;36.00
21770;DHT22;11046;49.558;8.674;2022-07-06T17:17:29;23.00;35.90
21770;DHT22;11046;49.558;8.674;2022-07-06T17:20:30;22.90;36.10
21770;DHT22;11046;49.558;8.674;2022-07-06T17:23:33;22.70;36.40
21770;DHT22;11046;49.558;8.674;2022-07-06T17:26:35;22.90;36.60
21770;DHT22;11046;49.558;8.674;2022-07-06T17:29:36;23.00;36.60
21770;DHT22;11046;49.558;8.674;2022-07-06T17:32:36;23.10;36.20
21770;DHT22;11046;49.558;8.674;2022-07-06T17:35:39;23.20;36.10
21770;DHT22;11046;49.558;8.674;2022-07-06T17:38:39;23.10;35.90
21770;DHT22;11046;49.558;8.674;2022-07-06T17:41:40;23.10;36.00
21770;DHT22;11046;49.558;8.674;2022-07-06T17:44:41;23.10;35.90
21770;DHT22;11046;49.558;8.674;2022-07-06T17:47:42;22.90;35.90
21770;DHT22;11046;49.558;8.674;2022-07-06T17:50:42;22.80;36.10
21770;DHT22;11046;49.558;8.674;2022-07-06T17:53:43;22.70;36.00
21770;DHT22;11046;49.558;8.674;2022-07-06T17:56:43;22.60;36.20
21770;DHT22;11046;49.558;8.674;2022-07-06T17:59:44;22.50;36.30
21770;DHT22;11046;49.558;8.674;2022-07-06T18:02:45;22.60;36.30
21770;DHT22;11046;49.558;8.674;2022-07-06T18:05:45;22.50;36.30
21770;DHT22;11046;49.558;8.674;2022-07-06T18:08:46;22.40;36.30
21770;DHT22;11046;49.558;8.674;2022-07-06T18:11:47;22.40;36.40
21770;DHT22;11046;49.558;8.674;2022-07-06T18:14:48;22.30;36.40
21770;DHT22;11046;49.558;8.674;2022-07-06T18:17:49;22.20;36.40
21770;DHT22;11046;49.558;8.674;2022-07-06T18:20:51;22.20;36.50
21770;DHT22;11046;49.558;8.674;2022-07-06T18:23:56;22.00;36.50
21770;DHT22;11046;49.558;8.674;2022-07-06T18:26:57;22.00;36.60
21770;DHT22;11046;49.558;8.674;2022-07-06T18:29:58;21.90;37.20
21770;DHT22;11046;49.558;8.674;2022-07-06T18:32:59;21.70;36.80
21770;DHT22;11046;49.558;8.674;2022-07-06T18:35:59;21.60;36.90
21770;DHT22;11046;49.558;8.674;2022-07-06T18:39:01;21.60;37.00
21770;DHT22;11046;49.558;8.674;2022-07-06T18:42:02;21.60;37.10
21770;DHT22;11046;49.558;8.674;2022-07-06T18:45:03;21.50;37.10
21770;DHT22;11046;49.558;8.674;2022-07-06T18:48:04;21.50;37.40
21770;DHT22;11046;49.558;8.674;2022-07-06T18:51:05;21.40;37.60
21770;DHT22;11046;49.558;8.674;2022-07-06T18:54:05;21.30;37.70
21770;DHT22;11046;49.558;8.674;2022-07-06T18:57:06;21.30;37.90
21770;DHT22;11046;49.558;8.674;2022-07-06T19:00:08;21.20;38.00
21770;DHT22;11046;49.558;8.674;2022-07-06T19:03:08;20.90;38.30
21770;DHT22;11046;49.558;8.674;2022-07-06T19:06:10;20.80;38.60
21770;DHT22;11046;49.558;8.674;2022-07-06T19:09:11;20.70;38.90
21770;DHT22;11046;49.558;8.674;2022-07-06T19:12:11;20.60;39.20
21770;DHT22;11046;49.558;8.674;2022-07-06T19:15:12;20.50;39.50
21770;DHT22;11046;49.558;8.674;2022-07-06T19:18:13;20.50;39.70
21770;DHT22;11046;49.558;8.674;2022-07-06T19:21:15;20.30;40.00
21770;DHT22;11046;49.558;8.674;2022-07-06T19:24:16;20.20;40.30
21770;DHT22;11046;49.558;8.674;2022-07-06T19:27:16;20.00;40.80
21770;DHT22;11046;49.558;8.674;2022-07-06T19:30:17;19.80;41.10
21770;DHT22;11046;49.558;8.674;2022-07-06T19:33:18;19.70;41.40
21770;DHT22;11046;49.558;8.674;2022-07-06T19:36:18;19.60;41.70
21770;DHT22;11046;49.558;8.674;2022-07-06T19:39:19;19.50;42.00
21770;DHT22;11046;49.558;8.674;2022-07-06T19:42:20;19.30;42.30
21770;DHT22;11046;49.558;8.674;2022-07-06T19:45:21;19.10;42.60
21770;DHT22;11046;49.558;8.674;2022-07-06T19:48:22;19.00;42.90
21770;DHT22;11046;49.558;8.674;2022-07-06T19:51:22;18.90;43.10
21770;DHT22;11046;49.558;8.674;2022-07-06T19:54:23;18.80;43.40
21770;DHT22;11046;49.558;8.674;2022-07-06T19:57:24;18.70;43.60
21770;DHT22;11046;49.558;8.674;2022-07-06T20:00:25;18.70;43.70
21770;DHT22;11046;49.558;8.674;2022-07-06T20:03:26;18.60;43.80
21770;DHT22;11046;49.558;8.674;2022-07-06T20:06:28;18.60;43.90
21770;DHT22;11046;49.558;8.674;2022-07-06T20:09:28;18.50;44.30
21770;DHT22;11046;49.558;8.674;2022-07-06T20:12:29;18.40;44.40
21770;DHT22;11046;49.558;8.674;2022-07-06T20:15:30;18.30;44.90
21770;DHT22;11046;49.558;8.674;2022-07-06T20:18:30;18.20;45.20
21770;DHT22;11046;49.558;8.674;2022-07-06T20:21:31;18.10;45.40
21770;DHT22;11046;49.558;8.674;2022-07-06T20:24:32;18.00;45.70
21770;DHT22;11046;49.558;8.674;2022-07-06T20:27:33;17.90;45.90
21770;DHT22;11046;49.558;8.674;2022-07-06T20:30:35;17.70;46.30
21770;DHT22;11046;49.558;8.674;2022-07-06T20:33:36;17.70;46.50
21770;DHT22;11046;49.558;8.674;2022-07-06T20:36:37;17.70;46.60
21770;DHT22;11046;49.558;8.674;2022-07-06T20:39:37;17.60;46.80
21770;DHT22;11046;49.558;8.674;2022-07-06T20:42:38;17.60;47.00
21770;DHT22;11046;49.558;8.674;2022-07-06T20:45:39;17.50;47.20
21770;DHT22;11046;49.558;8.674;2022-07-06T20:48:40;17.40;47.40
21770;DHT22;11046;49.558;8.674;2022-07-06T20:51:40;17.40;47.50
21770;DHT22;11046;49.558;8.674;2022-07-06T20:54:41;17.30;47.60
21770;DHT22;11046;49.558;8.674;2022-07-06T20:57:42;17.20;47.90
21770;DHT22;11046;49.558;8.674;2022-07-06T21:00:43;17.20;48.10
21770;DHT22;11046;49.558;8.674;2022-07-06T21:03:43;17.20;48.20
21770;DHT22;11046;49.558;8.674;2022-07-06T21:06:44;17.10;48.40
21770;DHT22;11046;49.558;8.674;2022-07-06T21:09:44;17.10;48.60
21770;DHT22;11046;49.558;8.674;2022-07-06T21:12:45;17.00;48.70
21770;DHT22;11046;49.558;8.674;2022-07-06T21:15:46;17.00;48.90
21770;DHT22;11046;49.558;8.674;2022-07-06T21:18:47;17.10;49.10
21770;DHT22;11046;49.558;8.674;2022-07-06T21:21:48;17.00;49.20
21770;DHT22;11046;49.558;8.674;2022-07-06T21:24:48;17.00;49.20
21770;DHT22;11046;49.558;8.674;2022-07-06T21:27:49;17.00;49.40
21770;DHT22;11046;49.558;8.674;2022-07-06T21:30:50;16.90;49.60
21770;DHT22;11046;49.558;8.674;2022-07-06T21:33:50;16.80;49.80
21770;DHT22;11046;49.558;8.674;2022-07-06T21:36:51;16.70;50.10
21770;DHT22;11046;49.558;8.674;2022-07-06T21:39:52;16.70;50.20
21770;DHT22;11046;49.558;8.674;2022-07-06T21:42:52;16.80;50.20
21770;DHT22;11046;49.558;8.674;2022-07-06T21:45:53;16.70;50.30
21770;DHT22;11046;49.558;8.674;2022-07-06T21:48:54;16.70;50.40
21770;DHT22;11046;49.558;8.674;2022-07-06T21:51:55;16.50;50.50
21770;DHT22;11046;49.558;8.674;2022-07-06T21:54:55;16.50;51.40
21770;DHT22;11046;49.558;8.674;2022-07-06T21:57:56;16.50;50.60
21770;DHT22;11046;49.558;8.674;2022-07-06T22:00:57;16.50;50.70
21770;DHT22;11046;49.558;8.674;2022-07-06T22:03:57;16.50;50.80
21770;DHT22;11046;49.558;8.674;2022-07-06T22:06:58;16.60;51.00
21770;DHT22;11046;49.558;8.674;2022-07-06T22:09:59;16.60;51.80
21770;DHT22;11046;49.558;8.674;2022-07-06T22:13:01;16.40;51.40
21770;DHT22;11046;49.558;8.674;2022-07-06T22:16:01;16.30;51.70
21770;DHT22;11046;49.558;8.674;2022-07-06T22:19:02;16.30;52.00
21770;DHT22;11046;49.558;8.674;2022-07-06T22:22:03;16.40;52.10
21770;DHT22;11046;49.558;8.674;2022-07-06T22:25:05;16.30;52.10
21770;DHT22;11046;49.558;8.674;2022-07-06T22:28:05;16.30;52.30
21770;DHT22;11046;49.558;8.674;2022-07-06T22:31:06;16.30;52.40
21770;DHT22;11046;49.558;8.674;2022-07-06T22:34:07;16.30;52.60
21770;DHT22;11046;49.558;8.674;2022-07-06T22:37:08;16.30;52.60
21770;DHT22;11046;49.558;8.674;2022-07-06T22:40:09;16.40;52.70
21770;DHT22;11046;49.558;8.674;2022-07-06T22:43:33;16.40;52.60
21770;DHT22;11046;49.558;8.674;2022-07-06T22:46:36;16.40;52.80
21770;DHT22;11046;49.558;8.674;2022-07-06T22:49:36;16.40;52.60
21770;DHT22;11046;49.558;8.674;2022-07-06T22:52:37;16.40;52.70
21770;DHT22;11046;49.558;8.674;2022-07-06T22:55:38;16.40;52.90
21770;DHT22;11046;49.558;8.674;2022-07-06T22:58:38;16.40;53.10
21770;DHT22;11046;49.558;8.674;2022-07-06T23:01:40;16.40;53.20
21770;DHT22;11046;49.558;8.674;2022-07-06T23:04:41;16.50;53.30
21770;DHT22;11046;49.558;8.674;2022-07-06T23:07:42;16.40;53.30
21770;DHT22;11046;49.558;8.674;2022-07-06T23:10:43;16.40;53.40
21770;DHT22;11046;49.558;8.674;2022-07-06T23:13:44;16.40;53.60
21770;DHT22;11046;49.558;8.674;2022-07-06T23:16:44;16.40;53.80
21770;DHT22;11046;49.558;8.674;2022-07-06T23:19:45;16.50;53.80
21770;DHT22;11046;49.558;8.674;2022-07-06T23:22:46;16.50;53.70
21770;DHT22;11046;49.558;8.674;2022-07-06T23:25:47;16.60;53.60
21770;DHT22;11046;49.558;8.674;2022-07-06T23:28:47;16.50;53.60
21770;DHT22;11046;49.558;8.674;2022-07-06T23:31:48;16.50;53.80
21770;DHT22;11046;49.558;8.674;2022-07-06T23:34:48;16.50;53.80
21770;DHT22;11046;49.558;8.674;2022-07-06T23:37:49;16.40;53.90
21770;DHT22;11046;49.558;8.674;2022-07-06T23:40:50;16.50;53.90
21770;DHT22;11046;49.558;8.674;2022-07-06T23:43:50;16.50;53.90
21770;DHT22;11046;49.558;8.674;2022-07-06T23:46:51;16.50;54.00
21770;DHT22;11046;49.558;8.674;2022-07-06T23:49:52;16.40;54.10
21770;DHT22;11046;49.558;8.674;2022-07-06T23:52:52;16.50;54.30
21770;DHT22;11046;49.558;8.674;2022-07-06T23:55:53;16.50;54.10
21770;DHT22;11046;49.558;8.674;2022-07-06T23:58:54;16.50;54.10
